Time,TemperatureF,DewpointF,PressureIn,WindDirection,WindDirectionDegrees,WindSpeedMPH,WindSpeedGustMPH,Humidity,HourlyPrecipIn,Conditions,Clouds,dailyrainin,SoftwareType,DateUTC
2013-08-12 00:01:00,78.6,73.8,30.00,WNW,298,0.0,0.0,85,0.00,,,0.00,WUHU216DAVISVP2,2013-08-12 04:01:00,
2013-08-12 00:04:00,78.6,73.8,30.00,WNW,298,0.0,0.0,85,0.00,,,0.00,WUHU216DAVISVP2,2013-08-12 04:04:00,
2013-08-12 00:09:00,78.6,73.8,30.00,WNW,298,0.0,0.0,85,0.00,,,0.00,WUHU216DAVISVP2,2013-08-12 04:09:00,
2013-08-12 00:14:00,78.6,74.1,30.00,WNW,298,0.0,0.0,86,0.00,,,0.00,WUHU216DAVISVP2,2013-08-12 04:14:00,
2013-08-12 00:19:00,78.6,74.1,30.00,WNW,298,0.0,0.0,86,0.00,,,0.00,WUHU216DAVISVP2,2013-08-12 04:19:00,
2013-08-12 00:24:00,78.6,74.1,30.00,WNW,298,0.0,0.0,86,0.00,,,0.00,WUHU216DAVISVP2,2013-08-12 04:24:00,
2013-08-12 00:29:00,78.6,74.1,30.00,WNW,298,0.0,0.0,86,0.00,,,0.00,WUHU216DAVISVP2,2013-08-12 04:29:00,
2013-08-12 00:34:00,78.6,74.1,30.00,WNW,298,0.0,0.0,86,0.00,,,0.00,WUHU216DAVISVP2,2013-08-12 04:34:00,
2013-08-12 00:39:00,78.5,74.0,30.00,WNW,298,0.0,0.0,86,0.00,,,0.00,WUHU216DAVISVP2,2013-08-12 04:39:00,
2013-08-12 00:44:00,78.5,74.0,30.00,WNW,298,0.0,0.0,86,0.00,,,0.00,WUHU216DAVISVP2,2013-08-12 04:44:00,
2013-08-12 00:49:00,78.5,74.0,30.00,WNW,298,0.0,0.0,86,0.00,,,0.00,WUHU216DAVISVP2,2013-08-12 04:49:00,
2013-08-12 00:54:00,78.5,74.0,30.00,WNW,298,0.0,0.0,86,0.00,,,0.00,WUHU216DAVISVP2,2013-08-12 04:54:00,
2013-08-12 00:59:00,78.5,74.0,30.00,WNW,298,0.0,0.0,86,0.00,,,0.00,WUHU216DAVISVP2,2013-08-12 04:59:00,
2013-08-12 01:04:00,78.5,74.0,30.00,WNW,298,0.0,0.0,86,0.00,,,0.00,WUHU216DAVISVP2,2013-08-12 05:04:00,
2013-08-12 01:09:00,78.5,74.0,29.99,WNW,298,0.0,0.0,86,0.00,,,0.00,WUHU216DAVISVP2,2013-08-12 05:09:00,
2013-08-12 01:14:00,78.3,73.8,29.99,WNW,298,0.0,0.0,86,0.00,,,0.00,WUHU216DAVISVP2,2013-08-12 05:14:00,
2013-08-12 01:19:00,78.3,73.8,29.99,WNW,298,0.0,0.0,86,0.00,,,0.00,WUHU216DAVISVP2,2013-08-12 05:19:00,
2013-08-12 01:24:00,78.3,74.1,29.99,WNW,298,0.0,0.0,87,0.00,,,0.00,WUHU216DAVISVP2,2013-08-12 05:24:00,
2013-08-12 01:29:00,78.1,73.9,29.99,WNW,298,0.0,0.0,87,0.00,,,0.00,WUHU216DAVISVP2,2013-08-12 05:29:00,
2013-08-12 01:34:00,78.1,73.9,29.99,WNW,298,0.0,0.0,87,0.00,,,0.00,WUHU216DAVISVP2,2013-08-12 05:34:00,
2013-08-12 01:39:00,78.1,73.9,29.98,WNW,298,0.0,0.0,87,0.00,,,0.00,WUHU216DAVISVP2,2013-08-12 05:39:00,
2013-08-12 01:44:00,77.9,73.7,29.98,WNW,298,0.0,0.0,87,0.00,,,0.00,WUHU216DAVISVP2,2013-08-12 05:44:00,
2013-08-12 01:49:00,77.9,73.7,29.98,WNW,298,0.0,0.0,87,0.00,,,0.00,WUHU216DAVISVP2,2013-08-12 05:49:00,
2013-08-12 01:54:00,77.9,73.7,29.98,WNW,298,0.0,0.0,87,0.00,,,0.00,WUHU216DAVISVP2,2013-08-12 05:54:00,
2013-08-12 01:59:00,77.9,73.7,29.98,WNW,298,0.0,0.0,87,0.00,,,0.00,WUHU216DAVISVP2,2013-08-12 05:59:00,
2013-08-12 02:04:00,77.7,73.5,29.98,WNW,298,0.0,0.0,87,0.00,,,0.00,WUHU216DAVISVP2,2013-08-12 06:04:00,
2013-08-12 02:09:00,77.7,73.5,29.97,WNW,298,0.0,0.0,87,0.00,,,0.00,WUHU216DAVISVP2,2013-08-12 06:09:00,
2013-08-12 02:14:00,77.7,73.5,29.97,WNW,298,0.0,0.0,87,0.00,,,0.00,WUHU216DAVISVP2,2013-08-12 06:14:00,
2013-08-12 02:19:00,77.7,73.5,29.97,WNW,298,0.0,0.0,87,0.00,,,0.00,WUHU216DAVISVP2,2013-08-12 06:19:00,
2013-08-12 02:24:00,77.6,73.4,29.97,WNW,298,0.0,0.0,87,0.00,,,0.00,WUHU216DAVISVP2,2013-08-12 06:24:00,
2013-08-12 02:29:00,77.6,73.4,29.97,WNW,298,0.0,0.0,87,0.00,,,0.00,WUHU216DAVISVP2,2013-08-12 06:29:00,
2013-08-12 02:34:00,77.6,73.4,29.97,WNW,298,0.0,0.0,87,0.00,,,0.00,WUHU216DAVISVP2,2013-08-12 06:34:00,
2013-08-12 02:39:00,77.6,73.8,29.97,WNW,298,0.0,0.0,88,0.00,,,0.00,WUHU216DAVISVP2,2013-08-12 06:39:00,
2013-08-12 02:44:00,77.6,73.8,29.97,WNW,298,0.0,0.0,88,0.00,,,0.00,WUHU216DAVISVP2,2013-08-12 06:44:00,
2013-08-12 02:49:00,77.6,73.8,29.97,WNW,298,0.0,0.0,88,0.00,,,0.00,WUHU216DAVISVP2,2013-08-12 06:49:00,
2013-08-12 02:54:00,77.6,73.8,29.96,WNW,298,0.0,0.0,88,0.00,,,0.00,WUHU216DAVISVP2,2013-08-12 06:54:00,
2013-08-12 02:59:00,77.4,73.6,29.96,WNW,298,0.0,0.0,88,0.00,,,0.00,WUHU216DAVISVP2,2013-08-12 06:59:00,
2013-08-12 03:04:00,77.2,73.4,29.96,WNW,298,0.0,0.0,88,0.00,,,0.00,WUHU216DAVISVP2,2013-08-12 07:04:00,
2013-08-12 03:09:00,77.2,73.4,29.96,WNW,298,0.0,0.0,88,0.00,,,0.00,WUHU216DAVISVP2,2013-08-12 07:09:00,
2013-08-12 03:14:00,77.2,73.4,29.96,WNW,298,0.0,0.0,88,0.00,,,0.00,WUHU216DAVISVP2,2013-08-12 07:14:00,
2013-08-12 03:19:00,77.2,73.4,29.96,WNW,298,0.0,0.0,88,0.00,,,0.00,WUHU216DAVISVP2,2013-08-12 07:19:00,
2013-08-12 03:24:00,77.2,73.4,29.95,WNW,298,0.0,0.0,88,0.00,,,0.00,WUHU216DAVISVP2,2013-08-12 07:24:00,
2013-08-12 03:29:00,77.0,73.2,29.95,WNW,298,0.0,0.0,88,0.00,,,0.00,WUHU216DAVISVP2,2013-08-12 07:29:00,
2013-08-12 03:34:00,77.0,73.2,29.95,WNW,298,0.0,0.0,88,0.00,,,0.00,WUHU216DAVISVP2,2013-08-12 07:34:00,
2013-08-12 03:39:00,76.8,73.0,29.95,WNW,298,0.0,0.0,88,0.00,,,0.00,WUHU216DAVISVP2,2013-08-12 07:39:00,
2013-08-12 03:44:00,76.8,73.0,29.95,WNW,298,0.0,0.0,88,0.00,,,0.00,WUHU216DAVISVP2,2013-08-12 07:44:00,
2013-08-12 03:49:00,76.8,73.0,29.95,WNW,298,0.0,0.0,88,0.00,,,0.00,WUHU216DAVISVP2,2013-08-12 07:49:00,
2013-08-12 03:54:00,76.8,73.0,29.96,WNW,298,0.0,0.0,88,0.00,,,0.00,WUHU216DAVISVP2,2013-08-12 07:54:00,
2013-08-12 03:59:00,76.7,72.9,29.96,WNW,298,0.0,0.0,88,0.00,,,0.00,WUHU216DAVISVP2,2013-08-12 07:59:00,
2013-08-12 04:04:00,76.7,72.9,29.96,WNW,298,0.0,0.0,88,0.00,,,0.00,WUHU216DAVISVP2,2013-08-12 08:04:00,
2013-08-12 04:09:00,76.7,72.9,29.96,WNW,298,0.0,0.0,88,0.00,,,0.00,WUHU216DAVISVP2,2013-08-12 08:09:00,
2013-08-12 04:14:00,76.5,72.7,29.96,WNW,298,0.0,0.0,88,0.00,,,0.00,WUHU216DAVISVP2,2013-08-12 08:14:00,
2013-08-12 04:19:00,76.5,72.7,29.96,WNW,298,0.0,0.0,88,0.00,,,0.00,WUHU216DAVISVP2,2013-08-12 08:19:00,
2013-08-12 04:24:00,76.5,72.7,29.96,WNW,298,0.0,0.0,88,0.00,,,0.00,WUHU216DAVISVP2,2013-08-12 08:24:00,
2013-08-12 04:29:00,76.5,72.7,29.96,WNW,298,0.0,0.0,88,0.00,,,0.00,WUHU216DAVISVP2,2013-08-12 08:29:00,
2013-08-12 04:34:00,76.5,73.0,29.96,WNW,298,0.0,0.0,89,0.00,,,0.00,WUHU216DAVISVP2,2013-08-12 08:34:00,
2013-08-12 04:39:00,76.5,73.0,29.96,WNW,298,0.0,0.0,89,0.00,,,0.00,WUHU216DAVISVP2,2013-08-12 08:39:00,
2013-08-12 04:44:00,76.5,73.0,29.96,WNW,298,0.0,0.0,89,0.00,,,0.00,WUHU216DAVISVP2,2013-08-12 08:44:00,
2013-08-12 04:49:00,76.5,73.0,29.96,WNW,298,0.0,0.0,89,0.00,,,0.00,WUHU216DAVISVP2,2013-08-12 08:49:00,
2013-08-12 04:54:00,76.5,73.0,29.96,WNW,298,0.0,0.0,89,0.00,,,0.00,WUHU216DAVISVP2,2013-08-12 08:54:00,
2013-08-12 04:59:00,76.5,73.0,29.96,WNW,298,0.0,0.0,89,0.00,,,0.00,WUHU216DAVISVP2,2013-08-12 08:59:00,
2013-08-12 05:04:00,76.5,73.0,29.96,WNW,298,0.0,0.0,89,0.00,,,0.00,WUHU216DAVISVP2,2013-08-12 09:04:00,
2013-08-12 05:09:00,76.3,72.8,29.97,WNW,298,0.0,0.0,89,0.00,,,0.00,WUHU216DAVISVP2,2013-08-12 09:09:00,
2013-08-12 05:14:00,76.3,72.8,29.97,WNW,298,0.0,0.0,89,0.00,,,0.00,WUHU216DAVISVP2,2013-08-12 09:14:00,
2013-08-12 05:19:00,76.3,72.8,29.97,WNW,298,0.0,0.0,89,0.00,,,0.00,WUHU216DAVISVP2,2013-08-12 09:19:00,
2013-08-12 05:24:00,76.1,72.6,29.97,WNW,298,0.0,0.0,89,0.00,,,0.00,WUHU216DAVISVP2,2013-08-12 09:24:00,
2013-08-12 05:29:00,76.1,72.6,29.97,WNW,298,0.0,0.0,89,0.00,,,0.00,WUHU216DAVISVP2,2013-08-12 09:29:00,
2013-08-12 05:34:00,76.1,72.6,29.97,WNW,298,0.0,0.0,89,0.00,,,0.00,WUHU216DAVISVP2,2013-08-12 09:34:00,
2013-08-12 05:41:00,76.1,72.6,29.97,WNW,298,0.0,0.0,89,0.00,,,0.00,WUHU216DAVISVP2,2013-08-12 09:41:00,
2013-08-12 05:46:00,76.0,72.5,29.97,WNW,298,0.0,0.0,89,0.00,,,0.00,WUHU216DAVISVP2,2013-08-12 09:46:00,
2013-08-12 05:51:00,76.0,72.5,29.97,WNW,298,0.0,0.0,89,0.00,,,0.00,WUHU216DAVISVP2,2013-08-12 09:51:00,
2013-08-12 05:56:00,76.0,72.5,29.97,WNW,298,0.0,0.0,89,0.00,,,0.00,WUHU216DAVISVP2,2013-08-12 09:56:00,
2013-08-12 06:01:00,76.0,72.5,29.97,WNW,298,0.0,0.0,89,0.00,,,0.00,WUHU216DAVISVP2,2013-08-12 10:01:00,
2013-08-12 06:06:00,76.0,72.8,29.97,WNW,298,0.0,0.0,90,0.00,,,0.00,WUHU216DAVISVP2,2013-08-12 10:06:00,
2013-08-12 06:12:00,76.1,72.9,29.97,WNW,298,0.0,0.0,90,0.00,,,0.00,WUHU216DAVISVP2,2013-08-12 10:12:00,
2013-08-12 06:17:00,76.3,73.1,29.97,WNW,298,0.0,0.0,90,0.00,,,0.00,WUHU216DAVISVP2,2013-08-12 10:17:00,
2013-08-12 06:22:00,76.3,73.1,29.97,WNW,298,0.0,0.0,90,0.00,,,0.00,WUHU216DAVISVP2,2013-08-12 10:22:00,
2013-08-12 06:27:00,76.3,73.1,29.97,WNW,298,0.0,0.0,90,0.00,,,0.00,WUHU216DAVISVP2,2013-08-12 10:27:00,
2013-08-12 06:32:00,76.3,73.1,29.97,WNW,298,0.0,0.0,90,0.00,,,0.00,WUHU216DAVISVP2,2013-08-12 10:32:00,
2013-08-12 06:37:00,76.3,73.1,29.97,WNW,298,0.0,0.0,90,0.00,,,0.00,WUHU216DAVISVP2,2013-08-12 10:37:00,
2013-08-12 06:42:00,76.3,73.1,29.98,WNW,298,0.0,0.0,90,0.00,,,0.00,WUHU216DAVISVP2,2013-08-12 10:42:00,
2013-08-12 06:47:00,76.3,73.1,29.98,WNW,298,0.0,0.0,90,0.00,,,0.00,WUHU216DAVISVP2,2013-08-12 10:47:00,
2013-08-12 06:52:00,76.3,73.1,29.98,WNW,298,0.0,0.0,90,0.00,,,0.00,WUHU216DAVISVP2,2013-08-12 10:52:00,
2013-08-12 06:58:00,76.3,73.1,29.98,WNW,298,0.0,0.0,90,0.00,,,0.00,WUHU216DAVISVP2,2013-08-12 10:58:00,
2013-08-12 07:02:00,76.7,73.5,29.98,WNW,298,0.0,0.0,90,0.00,,,0.00,WUHU216DAVISVP2,2013-08-12 11:02:00,
2013-08-12 07:08:00,76.5,73.3,29.98,WNW,298,0.0,0.0,90,0.00,,,0.00,WUHU216DAVISVP2,2013-08-12 11:08:00,
2013-08-12 07:13:00,76.7,73.5,29.98,WNW,298,0.0,0.0,90,0.00,,,0.00,WUHU216DAVISVP2,2013-08-12 11:13:00,
2013-08-12 07:19:00,76.8,73.6,29.98,WNW,298,0.0,0.0,90,0.00,,,0.00,WUHU216DAVISVP2,2013-08-12 11:19:00,
2013-08-12 07:24:00,77.2,74.0,29.99,WNW,298,0.0,1.0,90,0.00,,,0.00,WUHU216DAVISVP2,2013-08-12 11:24:00,
2013-08-12 07:29:00,77.4,74.2,29.99,WNW,298,0.0,1.0,90,0.00,,,0.00,WUHU216DAVISVP2,2013-08-12 11:29:00,
2013-08-12 07:34:00,77.6,74.4,29.99,WNW,298,0.0,1.0,90,0.00,,,0.00,WUHU216DAVISVP2,2013-08-12 11:34:00,
2013-08-12 07:39:00,77.4,74.2,29.98,WNW,298,0.0,0.0,90,0.00,,,0.00,WUHU216DAVISVP2,2013-08-12 11:39:00,
2013-08-12 07:44:00,77.7,74.5,29.98,WNW,298,0.0,0.0,90,0.00,,,0.00,WUHU216DAVISVP2,2013-08-12 11:44:00,
2013-08-12 07:49:00,77.6,74.4,29.98,NW,306,0.0,1.0,90,0.00,,,0.00,WUHU216DAVISVP2,2013-08-12 11:49:00,
2013-08-12 07:54:00,77.7,74.5,29.99,NW,306,0.0,1.0,90,0.00,,,0.00,WUHU216DAVISVP2,2013-08-12 11:54:00,
2013-08-12 08:00:00,78.1,74.9,29.99,NW,306,0.0,0.0,90,0.00,,,0.00,WUHU216DAVISVP2,2013-08-12 12:00:00,
2013-08-12 08:05:00,78.5,75.3,29.99,NW,306,0.0,0.0,90,0.00,,,0.00,WUHU216DAVISVP2,2013-08-12 12:05:00,
2013-08-12 08:13:00,78.8,75.6,29.99,NW,306,0.0,0.0,90,0.00,,,0.00,WUHU216DAVISVP2,2013-08-12 12:13:00,
2013-08-12 08:18:00,78.3,74.8,29.99,NW,306,0.0,0.0,89,0.00,,,0.00,WUHU216DAVISVP2,2013-08-12 12:18:00,
2013-08-12 08:23:00,78.5,75.3,29.99,WNW,294,0.0,0.0,90,0.00,,,0.00,WUHU216DAVISVP2,2013-08-12 12:23:00,
2013-08-12 08:28:00,78.8,75.3,29.99,NE,42,0.0,2.0,89,0.00,,,0.00,WUHU216DAVISVP2,2013-08-12 12:28:00,
2013-08-12 08:33:00,79.0,75.5,29.99,NNE,18,2.0,2.0,89,0.00,,,0.00,WUHU216DAVISVP2,2013-08-12 12:33:00,
2013-08-12 08:38:00,79.0,75.2,29.99,North,6,0.0,4.0,88,0.00,,,0.00,WUHU216DAVISVP2,2013-08-12 12:38:00,
2013-08-12 08:43:00,79.2,75.4,29.99,North,1,0.0,4.0,88,0.00,,,0.00,WUHU216DAVISVP2,2013-08-12 12:43:00,
2013-08-12 08:48:00,79.4,75.2,29.99,North,0,1.0,4.0,87,0.00,,,0.00,WUHU216DAVISVP2,2013-08-12 12:48:00,
2013-08-12 08:55:00,79.6,75.4,29.99,WNW,296,0.0,4.0,87,0.00,,,0.00,WUHU216DAVISVP2,2013-08-12 12:55:00,
2013-08-12 09:00:00,79.9,75.4,29.99,NW,308,0.0,4.0,86,0.00,,,0.00,WUHU216DAVISVP2,2013-08-12 13:00:00,
2013-08-12 09:05:00,80.1,75.6,29.99,NNW,329,0.0,4.0,86,0.00,,,0.00,WUHU216DAVISVP2,2013-08-12 13:05:00,
2013-08-12 09:10:00,80.3,75.4,29.99,NNW,347,0.0,4.0,85,0.00,,,0.00,WUHU216DAVISVP2,2013-08-12 13:10:00,
2013-08-12 09:15:00,80.7,75.5,29.99,North,349,0.0,4.0,84,0.00,,,0.00,WUHU216DAVISVP2,2013-08-12 13:15:00,
2013-08-12 09:20:00,80.9,75.3,29.99,North,11,0.0,4.0,83,0.00,,,0.00,WUHU216DAVISVP2,2013-08-12 13:20:00,
2013-08-12 09:25:00,81.1,75.5,29.99,North,0,1.0,2.0,83,0.00,,,0.00,WUHU216DAVISVP2,2013-08-12 13:25:00,
2013-08-12 09:30:00,81.1,75.2,29.99,West,264,1.0,6.0,82,0.00,,,0.00,WUHU216DAVISVP2,2013-08-12 13:30:00,
2013-08-12 09:35:00,81.2,74.9,29.99,West,271,0.0,6.0,81,0.00,,,0.00,WUHU216DAVISVP2,2013-08-12 13:35:00,
2013-08-12 09:40:00,81.4,74.8,29.99,NW,316,0.0,4.0,80,0.00,,,0.00,WUHU216DAVISVP2,2013-08-12 13:40:00,
2013-08-12 09:45:00,81.6,74.9,29.99,NNW,332,0.0,4.0,80,0.00,,,0.00,WUHU216DAVISVP2,2013-08-12 13:45:00,
2013-08-12 09:50:00,82.0,75.3,29.99,NNW,347,0.0,6.0,80,0.00,,,0.00,WUHU216DAVISVP2,2013-08-12 13:50:00,
2013-08-12 09:55:00,82.4,75.4,29.99,NNW,347,0.0,6.0,79,0.00,,,0.00,WUHU216DAVISVP2,2013-08-12 13:55:00,
2013-08-12 10:00:00,82.6,74.8,29.99,NNE,27,0.0,2.0,77,0.00,,,0.00,WUHU216DAVISVP2,2013-08-12 14:00:00,
2013-08-12 10:05:00,82.8,75.0,29.99,NW,318,0.0,2.0,77,0.00,,,0.00,WUHU216DAVISVP2,2013-08-12 14:05:00,
2013-08-12 10:10:00,83.4,75.6,29.98,NW,316,0.0,2.0,77,0.00,,,0.00,WUHU216DAVISVP2,2013-08-12 14:10:00,
2013-08-12 10:15:00,83.8,76.0,29.98,NW,320,0.0,1.0,77,0.00,,,0.00,WUHU216DAVISVP2,2013-08-12 14:15:00,
2013-08-12 10:20:00,84.0,75.8,29.98,WNW,292,0.0,4.0,76,0.00,,,0.00,WUHU216DAVISVP2,2013-08-12 14:20:00,
2013-08-12 10:25:00,84.0,75.4,29.99,WNW,291,0.0,4.0,75,0.00,,,0.00,WUHU216DAVISVP2,2013-08-12 14:25:00,
2013-08-12 10:30:00,84.1,75.5,29.99,NW,306,0.0,4.0,75,0.00,,,0.00,WUHU216DAVISVP2,2013-08-12 14:30:00,
2013-08-12 10:35:00,84.3,75.7,29.99,NNW,328,2.0,4.0,75,0.00,,,0.00,WUHU216DAVISVP2,2013-08-12 14:35:00,
2013-08-12 10:40:00,84.7,75.7,29.99,NNW,328,0.0,4.0,74,0.00,,,0.00,WUHU216DAVISVP2,2013-08-12 14:40:00,
2013-08-12 10:45:00,84.9,75.5,29.99,NW,315,0.0,1.0,73,0.00,,,0.00,WUHU216DAVISVP2,2013-08-12 14:45:00,
2013-08-12 10:50:00,85.1,75.3,29.99,NW,325,0.0,1.0,72,0.00,,,0.00,WUHU216DAVISVP2,2013-08-12 14:50:00,
2013-08-12 10:55:00,85.5,76.1,29.98,NW,325,0.0,1.0,73,0.00,,,0.00,WUHU216DAVISVP2,2013-08-12 14:55:00,
2013-08-12 11:00:00,85.9,76.1,29.98,NW,325,0.0,0.0,72,0.00,,,0.00,WUHU216DAVISVP2,2013-08-12 15:00:00,
2013-08-12 11:05:00,85.9,75.6,29.98,North,356,0.0,4.0,71,0.00,,,0.00,WUHU216DAVISVP2,2013-08-12 15:05:00,
2013-08-12 11:10:00,86.1,75.8,29.99,West,261,0.0,4.0,71,0.00,,,0.00,WUHU216DAVISVP2,2013-08-12 15:10:00,
2013-08-12 11:15:00,85.5,74.4,29.99,NNE,28,0.0,4.0,69,0.00,,,0.00,WUHU216DAVISVP2,2013-08-12 15:15:00,
2013-08-12 11:21:00,85.9,75.2,29.99,NW,323,1.0,2.0,70,0.00,,,0.00,WUHU216DAVISVP2,2013-08-12 15:21:00,
2013-08-12 11:26:00,86.1,75.4,29.98,NNW,332,0.0,4.0,70,0.00,,,0.00,WUHU216DAVISVP2,2013-08-12 15:26:00,
2013-08-12 11:31:00,86.5,75.8,29.98,NNW,332,0.0,4.0,70,0.00,,,0.00,WUHU216DAVISVP2,2013-08-12 15:31:00,
2013-08-12 12:23:00,87.8,75.8,29.96,NW,309,0.0,0.0,67,0.00,,,0.00,WUHU216DAVISVP2,2013-08-12 16:23:00,
2013-08-12 12:28:00,87.8,75.3,29.96,SSE,155,2.0,2.0,66,0.00,,,0.00,WUHU216DAVISVP2,2013-08-12 16:28:00,
2013-08-12 12:33:00,88.0,76.0,29.96,WNW,287,0.0,2.0,67,0.00,,,0.00,WUHU216DAVISVP2,2013-08-12 16:33:00,
2013-08-12 12:38:00,88.0,74.6,29.96,ESE,107,0.0,2.0,64,0.00,,,0.00,WUHU216DAVISVP2,2013-08-12 16:38:00,
2013-08-12 12:43:00,88.2,75.2,29.96,NW,325,2.0,2.0,65,0.00,,,0.00,WUHU216DAVISVP2,2013-08-12 16:43:00,
2013-08-12 12:48:00,88.4,75.4,29.96,NW,318,0.0,2.0,65,0.00,,,0.00,WUHU216DAVISVP2,2013-08-12 16:48:00,
2013-08-12 12:53:00,88.2,75.4,29.96,NW,316,0.0,2.0,66,0.00,,,0.00,WUHU216DAVISVP2,2013-08-12 16:53:00,
2013-08-12 12:58:00,88.2,74.8,29.96,WNW,288,0.0,2.0,64,0.00,,,0.00,WUHU216DAVISVP2,2013-08-12 16:58:00,
2013-08-12 13:03:00,88.2,74.3,29.96,WNW,288,0.0,2.0,63,0.00,,,0.00,WUHU216DAVISVP2,2013-08-12 17:03:00,
2013-08-12 13:08:00,88.8,74.1,29.96,WNW,288,0.0,0.0,62,0.00,,,0.00,WUHU216DAVISVP2,2013-08-12 17:08:00,
2013-08-12 13:13:00,88.8,74.9,29.96,WNW,288,0.0,0.0,63,0.00,,,0.00,WUHU216DAVISVP2,2013-08-12 17:13:00,
2013-08-12 13:18:00,89.0,74.6,29.96,NW,313,2.0,6.0,62,0.00,,,0.00,WUHU216DAVISVP2,2013-08-12 17:18:00,
2013-08-12 13:23:00,89.3,73.6,29.95,NW,315,0.0,6.0,60,0.00,,,0.00,WUHU216DAVISVP2,2013-08-12 17:23:00,
2013-08-12 13:28:00,89.7,74.3,29.95,NNW,337,0.0,4.0,60,0.00,,,0.00,WUHU216DAVISVP2,2013-08-12 17:28:00,
2013-08-12 13:33:00,90.1,74.6,29.95,NNW,328,0.0,4.0,60,0.00,,,0.00,WUHU216DAVISVP2,2013-08-12 17:33:00,
2013-08-12 13:38:00,90.3,74.8,29.95,WNW,289,0.0,7.0,60,0.00,,,0.00,WUHU216DAVISVP2,2013-08-12 17:38:00,
2013-08-12 13:43:00,90.3,74.0,29.95,WNW,289,0.0,7.0,59,0.00,,,0.00,WUHU216DAVISVP2,2013-08-12 17:43:00,
2013-08-12 13:48:00,90.3,74.8,29.95,North,350,0.0,1.0,60,0.00,,,0.00,WUHU216DAVISVP2,2013-08-12 17:48:00,
2013-08-12 13:53:00,90.7,74.2,29.95,North,0,0.0,1.0,58,0.00,,,0.00,WUHU216DAVISVP2,2013-08-12 17:53:00,
2013-08-12 13:58:00,91.0,74.5,29.95,NNE,28,0.0,1.0,58,0.00,,,0.00,WUHU216DAVISVP2,2013-08-12 17:58:00,
2013-08-12 14:03:00,91.2,74.1,29.95,NNE,28,0.0,1.0,57,0.00,,,0.00,WUHU216DAVISVP2,2013-08-12 18:03:00,
2013-08-12 14:08:00,91.4,73.8,29.95,NNW,329,0.0,2.0,56,0.00,,,0.00,WUHU216DAVISVP2,2013-08-12 18:08:00,
2013-08-12 14:13:00,90.7,72.6,29.95,NNE,18,0.0,2.0,55,0.00,,,0.00,WUHU216DAVISVP2,2013-08-12 18:13:00,
2013-08-12 14:19:00,90.5,73.5,29.95,NNE,18,0.0,2.0,57,0.00,,,0.00,WUHU216DAVISVP2,2013-08-12 18:19:00,
2013-08-12 14:24:00,90.3,72.2,29.94,SE,141,0.0,2.0,55,0.00,,,0.00,WUHU216DAVISVP2,2013-08-12 18:24:00,
2013-08-12 14:29:00,90.5,72.4,29.94,NNW,330,1.0,2.0,55,0.00,,,0.00,WUHU216DAVISVP2,2013-08-12 18:29:00,
2013-08-12 14:34:00,90.5,73.5,29.94,ENE,62,0.0,1.0,57,0.00,,,0.00,WUHU216DAVISVP2,2013-08-12 18:34:00,
2013-08-12 14:39:00,91.0,73.4,29.94,NW,309,0.0,2.0,56,0.00,,,0.00,WUHU216DAVISVP2,2013-08-12 18:39:00,
2013-08-12 14:44:00,91.2,73.0,29.94,NW,309,0.0,2.0,55,0.00,,,0.00,WUHU216DAVISVP2,2013-08-12 18:44:00,
2013-08-12 14:49:00,91.4,72.4,29.94,North,349,1.0,2.0,54,0.00,,,0.00,WUHU216DAVISVP2,2013-08-12 18:49:00,
2013-08-12 14:54:00,91.6,72.9,29.94,SW,230,0.0,4.0,54,0.00,,,0.00,WUHU216DAVISVP2,2013-08-12 18:54:00,
2013-08-12 14:59:00,91.4,72.7,29.94,NW,313,0.0,4.0,54,0.00,,,0.00,WUHU216DAVISVP2,2013-08-12 18:59:00,
2013-08-12 15:04:00,91.2,71.9,29.94,NNW,340,0.0,4.0,53,0.00,,,0.00,WUHU216DAVISVP2,2013-08-12 19:04:00,
2013-08-12 15:09:00,91.2,72.2,29.94,NW,320,0.0,6.0,54,0.00,,,0.00,WUHU216DAVISVP2,2013-08-12 19:09:00,
2013-08-12 15:14:00,91.4,72.7,29.94,WNW,298,1.0,6.0,54,0.00,,,0.00,WUHU216DAVISVP2,2013-08-12 19:14:00,
2013-08-12 15:19:00,91.8,73.0,29.94,NW,323,0.0,2.0,54,0.00,,,0.00,WUHU216DAVISVP2,2013-08-12 19:19:00,
2013-08-12 15:24:00,91.8,73.9,29.93,NNW,335,0.0,2.0,56,0.00,,,0.00,WUHU216DAVISVP2,2013-08-12 19:24:00,
2013-08-12 15:29:00,91.6,72.3,29.93,NNW,335,0.0,2.0,53,0.00,,,0.00,WUHU216DAVISVP2,2013-08-12 19:29:00,
2013-08-12 15:34:00,91.4,73.2,29.93,NNW,336,0.0,2.0,55,0.00,,,0.00,WUHU216DAVISVP2,2013-08-12 19:34:00,
2013-08-12 15:39:00,91.4,73.2,29.92,NNW,336,0.0,0.0,55,0.00,,,0.00,WUHU216DAVISVP2,2013-08-12 19:39:00,
2013-08-12 15:44:00,91.0,73.4,29.92,SSE,148,0.0,2.0,56,0.00,,,0.00,WUHU216DAVISVP2,2013-08-12 19:44:00,
2013-08-12 15:49:00,91.2,73.0,29.92,NNW,343,2.0,2.0,55,0.00,,,0.00,WUHU216DAVISVP2,2013-08-12 19:49:00,
2013-08-12 15:54:00,91.6,72.9,29.92,NNW,340,0.0,2.0,54,0.00,,,0.00,WUHU216DAVISVP2,2013-08-12 19:54:00,
2013-08-12 15:59:00,91.8,71.9,29.92,NNW,329,0.0,4.0,52,0.00,,,0.00,WUHU216DAVISVP2,2013-08-12 19:59:00,
2013-08-12 16:04:00,92.3,72.4,29.92,NNW,329,0.0,4.0,52,0.00,,,0.00,WUHU216DAVISVP2,2013-08-12 20:04:00,
2013-08-12 16:09:00,92.5,74.8,29.92,North,353,1.0,1.0,56,0.00,,,0.00,WUHU216DAVISVP2,2013-08-12 20:09:00,
2013-08-12 16:14:00,92.3,73.5,29.92,North,356,0.0,4.0,54,0.00,,,0.00,WUHU216DAVISVP2,2013-08-12 20:14:00,
2013-08-12 16:19:00,92.3,73.5,29.92,WNW,284,0.0,4.0,54,0.00,,,0.00,WUHU216DAVISVP2,2013-08-12 20:19:00,
2013-08-12 16:24:00,91.8,71.9,29.91,North,350,1.0,4.0,52,0.00,,,0.00,WUHU216DAVISVP2,2013-08-12 20:24:00,
2013-08-12 16:29:00,91.4,71.5,29.91,North,359,0.0,2.0,52,0.00,,,0.00,WUHU216DAVISVP2,2013-08-12 20:29:00,
2013-08-12 16:34:00,91.4,70.9,29.91,North,359,0.0,2.0,51,0.00,,,0.00,WUHU216DAVISVP2,2013-08-12 20:34:00,
2013-08-12 16:39:00,91.2,71.3,29.91,North,359,0.0,1.0,52,0.00,,,0.00,WUHU216DAVISVP2,2013-08-12 20:39:00,
2013-08-12 16:44:00,90.7,72.6,29.91,North,359,0.0,1.0,55,0.00,,,0.00,WUHU216DAVISVP2,2013-08-12 20:44:00,
2013-08-12 16:49:00,90.1,72.0,29.91,North,359,0.0,0.0,55,0.00,,,0.00,WUHU216DAVISVP2,2013-08-12 20:49:00,
2013-08-12 16:54:00,89.9,71.3,29.91,North,359,0.0,0.0,54,0.00,,,0.00,WUHU216DAVISVP2,2013-08-12 20:54:00,
2013-08-12 16:59:00,90.1,73.1,29.91,ENE,61,0.0,2.0,57,0.00,,,0.00,WUHU216DAVISVP2,2013-08-12 20:59:00,
2013-08-12 17:04:00,90.3,72.7,29.91,ENE,61,0.0,2.0,56,0.00,,,0.00,WUHU216DAVISVP2,2013-08-12 21:04:00,
2013-08-12 17:09:00,90.7,72.6,29.91,ENE,61,0.0,0.0,55,0.00,,,0.00,WUHU216DAVISVP2,2013-08-12 21:09:00,
2013-08-12 17:15:00,91.0,71.2,29.91,ENE,61,0.0,0.0,52,0.00,,,0.00,WUHU216DAVISVP2,2013-08-12 21:15:00,
2013-08-12 17:20:00,91.2,71.9,29.91,ENE,61,0.0,0.0,53,0.00,,,0.00,WUHU216DAVISVP2,2013-08-12 21:20:00,
2013-08-12 17:25:00,91.4,71.5,29.91,ENE,61,0.0,0.0,52,0.00,,,0.00,WUHU216DAVISVP2,2013-08-12 21:25:00,
2013-08-12 17:30:00,91.4,71.5,29.91,ENE,61,0.0,2.0,52,0.00,,,0.00,WUHU216DAVISVP2,2013-08-12 21:30:00,
2013-08-12 17:35:00,91.2,71.3,29.91,ENE,59,0.0,2.0,52,0.00,,,0.00,WUHU216DAVISVP2,2013-08-12 21:35:00,
2013-08-12 17:40:00,91.0,72.3,29.91,ENE,59,0.0,1.0,54,0.00,,,0.00,WUHU216DAVISVP2,2013-08-12 21:40:00,
2013-08-12 17:45:00,90.5,71.8,29.91,ENE,58,0.0,0.0,54,0.00,,,0.00,WUHU216DAVISVP2,2013-08-12 21:45:00,
2013-08-12 17:50:00,89.7,71.6,29.91,ENE,58,0.0,0.0,55,0.00,,,0.00,WUHU216DAVISVP2,2013-08-12 21:50:00,
2013-08-12 17:55:00,89.0,71.0,29.92,ENE,58,0.0,0.0,55,0.00,,,0.00,WUHU216DAVISVP2,2013-08-12 21:55:00,
2013-08-12 18:00:00,88.6,71.2,29.92,ENE,58,0.0,0.0,56,0.00,,,0.00,WUHU216DAVISVP2,2013-08-12 22:00:00,
2013-08-12 18:05:00,88.0,70.6,29.92,ENE,58,0.0,0.0,56,0.00,,,0.00,WUHU216DAVISVP2,2013-08-12 22:05:00,
2013-08-12 18:10:00,88.0,71.6,29.91,ENE,58,0.0,0.0,58,0.00,,,0.00,WUHU216DAVISVP2,2013-08-12 22:10:00,
2013-08-12 18:15:00,88.0,72.2,29.91,ENE,58,0.0,0.0,59,0.00,,,0.00,WUHU216DAVISVP2,2013-08-12 22:15:00,
2013-08-12 18:20:00,87.8,72.5,29.91,ENE,58,0.0,0.0,60,0.00,,,0.00,WUHU216DAVISVP2,2013-08-12 22:20:00,
2013-08-12 18:25:00,87.4,72.1,29.91,ENE,58,0.0,0.0,60,0.00,,,0.00,WUHU216DAVISVP2,2013-08-12 22:25:00,
2013-08-12 18:30:00,86.7,71.4,29.91,ENE,58,0.0,0.0,60,0.00,,,0.00,WUHU216DAVISVP2,2013-08-12 22:30:00,
2013-08-12 18:35:00,86.3,71.5,29.91,ENE,58,0.0,0.0,61,0.00,,,0.00,WUHU216DAVISVP2,2013-08-12 22:35:00,
2013-08-12 18:40:00,85.9,71.6,29.91,ENE,58,0.0,0.0,62,0.00,,,0.00,WUHU216DAVISVP2,2013-08-12 22:40:00,
2013-08-12 18:45:00,85.3,71.6,29.91,ENE,58,0.0,0.0,63,0.00,,,0.00,WUHU216DAVISVP2,2013-08-12 22:45:00,
2013-08-12 18:50:00,84.9,72.5,29.91,ENE,58,0.0,0.0,66,0.00,,,0.00,WUHU216DAVISVP2,2013-08-12 22:50:00,
2013-08-12 18:55:00,84.7,72.8,29.90,ENE,58,0.0,0.0,67,0.00,,,0.00,WUHU216DAVISVP2,2013-08-12 22:55:00,
2013-08-12 19:00:00,84.3,72.8,29.90,ENE,58,0.0,0.0,68,0.00,,,0.00,WUHU216DAVISVP2,2013-08-12 23:00:00,
2013-08-12 19:05:00,84.1,73.1,29.90,ENE,58,0.0,0.0,69,0.00,,,0.00,WUHU216DAVISVP2,2013-08-12 23:05:00,
2013-08-12 19:10:00,83.8,73.2,29.90,ENE,58,0.0,0.0,70,0.00,,,0.00,WUHU216DAVISVP2,2013-08-12 23:10:00,
2013-08-12 19:15:00,83.6,73.4,29.90,ENE,58,0.0,0.0,71,0.00,,,0.00,WUHU216DAVISVP2,2013-08-12 23:15:00,
2013-08-12 19:20:00,83.2,72.6,29.90,ENE,58,0.0,0.0,70,0.00,,,0.00,WUHU216DAVISVP2,2013-08-12 23:20:00,
2013-08-12 19:25:00,82.8,72.7,29.90,ENE,58,0.0,0.0,71,0.00,,,0.00,WUHU216DAVISVP2,2013-08-12 23:25:00,
2013-08-12 19:30:00,82.4,72.3,29.90,ENE,58,0.0,0.0,71,0.00,,,0.00,WUHU216DAVISVP2,2013-08-12 23:30:00,
2013-08-12 19:35:00,82.0,72.3,29.90,ENE,58,0.0,0.0,72,0.00,,,0.00,WUHU216DAVISVP2,2013-08-12 23:35:00,
2013-08-12 19:40:00,81.8,72.5,29.91,ENE,58,0.0,0.0,73,0.00,,,0.00,WUHU216DAVISVP2,2013-08-12 23:40:00,
2013-08-12 19:45:00,81.6,72.3,29.91,ENE,58,0.0,0.0,73,0.00,,,0.00,WUHU216DAVISVP2,2013-08-12 23:45:00,
2013-08-12 19:50:00,81.2,71.9,29.91,ENE,58,0.0,0.0,73,0.00,,,0.00,WUHU216DAVISVP2,2013-08-12 23:50:00,
2013-08-12 19:55:00,81.1,71.8,29.91,ENE,58,0.0,0.0,73,0.00,,,0.00,WUHU216DAVISVP2,2013-08-12 23:55:00,
2013-08-12 20:02:00,80.9,72.4,29.91,ENE,58,0.0,0.0,75,0.00,,,0.00,WUHU216DAVISVP2,2013-08-13 00:02:00,
2013-08-12 20:07:00,80.7,72.2,29.91,ENE,58,0.0,0.0,75,0.00,,,0.00,WUHU216DAVISVP2,2013-08-13 00:07:00,
2013-08-12 20:12:00,80.7,73.0,29.91,ENE,58,0.0,0.0,77,0.00,,,0.00,WUHU216DAVISVP2,2013-08-13 00:12:00,
2013-08-12 20:17:00,80.5,72.8,29.91,ENE,58,0.0,0.0,77,0.00,,,0.00,WUHU216DAVISVP2,2013-08-13 00:17:00,
2013-08-12 20:24:00,80.3,73.0,29.91,ENE,58,0.0,0.0,78,0.00,,,0.00,WUHU216DAVISVP2,2013-08-13 00:24:00,
2013-08-12 20:28:00,80.3,72.8,29.91,ENE,58,0.0,0.0,78,0.00,,,0.00,WUHU216DAVISVP2,2013-08-13 00:28:00,
2013-08-12 20:34:00,80.1,72.8,29.91,ENE,58,0.0,0.0,78,0.00,,,0.00,WUHU216DAVISVP2,2013-08-13 00:34:00,
2013-08-12 20:39:00,79.9,72.6,29.90,ENE,58,0.0,0.0,78,0.00,,,0.00,WUHU216DAVISVP2,2013-08-13 00:39:00,
2013-08-12 20:44:00,79.8,72.5,29.90,ENE,58,0.0,0.0,78,0.00,,,0.00,WUHU216DAVISVP2,2013-08-13 00:44:00,
2013-08-12 20:49:00,79.4,72.4,29.90,ENE,58,0.0,0.0,79,0.00,,,0.00,WUHU216DAVISVP2,2013-08-13 00:49:00,
2013-08-12 20:54:00,79.2,72.2,29.90,ENE,58,0.0,0.0,79,0.00,,,0.00,WUHU216DAVISVP2,2013-08-13 00:54:00,
2013-08-12 20:59:00,78.8,71.9,29.90,ENE,58,0.0,0.0,79,0.00,,,0.00,WUHU216DAVISVP2,2013-08-13 00:59:00,
2013-08-12 21:04:00,78.8,71.9,29.90,ENE,58,0.0,0.0,79,0.00,,,0.00,WUHU216DAVISVP2,2013-08-13 01:04:00,
2013-08-12 21:09:00,78.6,72.0,29.91,ENE,58,0.0,0.0,80,0.00,,,0.00,WUHU216DAVISVP2,2013-08-13 01:09:00,
2013-08-12 21:14:00,78.5,71.9,29.91,ENE,58,0.0,0.0,80,0.00,,,0.00,WUHU216DAVISVP2,2013-08-13 01:14:00,
2013-08-12 21:19:00,78.3,71.7,29.91,ENE,58,0.0,0.0,80,0.00,,,0.00,WUHU216DAVISVP2,2013-08-13 01:19:00,
2013-08-12 21:24:00,78.3,71.7,29.91,ENE,58,0.0,0.0,80,0.00,,,0.00,WUHU216DAVISVP2,2013-08-13 01:24:00,
2013-08-12 21:29:00,78.1,71.5,29.91,ENE,58,0.0,0.0,80,0.00,,,0.00,WUHU216DAVISVP2,2013-08-13 01:29:00,
2013-08-12 21:34:00,78.1,71.5,29.91,ENE,58,0.0,0.0,80,0.00,,,0.00,WUHU216DAVISVP2,2013-08-13 01:34:00,
2013-08-12 21:39:00,77.9,71.3,29.92,ENE,58,0.0,0.0,80,0.00,,,0.00,WUHU216DAVISVP2,2013-08-13 01:39:00,
2013-08-12 21:44:00,77.9,71.2,29.92,ENE,58,0.0,0.0,80,0.00,,,0.00,WUHU216DAVISVP2,2013-08-13 01:44:00,
2013-08-12 21:49:00,77.9,71.6,29.92,ENE,58,0.0,0.0,81,0.00,,,0.00,WUHU216DAVISVP2,2013-08-13 01:49:00,
2013-08-12 21:54:00,77.9,71.7,29.92,ENE,58,0.0,0.0,81,0.00,,,0.00,WUHU216DAVISVP2,2013-08-13 01:54:00,
2013-08-12 21:59:00,77.9,71.7,29.92,ENE,58,0.0,0.0,81,0.00,,,0.00,WUHU216DAVISVP2,2013-08-13 01:59:00,
2013-08-12 22:04:00,77.7,71.5,29.92,ENE,58,0.0,0.0,81,0.00,,,0.00,WUHU216DAVISVP2,2013-08-13 02:04:00,
2013-08-12 22:09:00,77.6,71.4,29.92,ENE,58,0.0,0.0,81,0.00,,,0.00,WUHU216DAVISVP2,2013-08-13 02:09:00,
2013-08-12 22:14:00,77.6,71.4,29.92,ENE,58,0.0,0.0,81,0.00,,,0.00,WUHU216DAVISVP2,2013-08-13 02:14:00,
2013-08-12 22:19:00,77.6,71.4,29.92,ENE,58,0.0,0.0,81,0.00,,,0.00,WUHU216DAVISVP2,2013-08-13 02:19:00,
2013-08-12 22:24:00,77.4,71.1,29.92,ENE,58,0.0,0.0,81,0.00,,,0.00,WUHU216DAVISVP2,2013-08-13 02:24:00,
2013-08-12 22:29:00,77.4,71.2,29.92,ENE,58,0.0,0.0,81,0.00,,,0.00,WUHU216DAVISVP2,2013-08-13 02:29:00,
2013-08-12 22:34:00,77.4,71.2,29.92,ENE,58,0.0,0.0,81,0.00,,,0.00,WUHU216DAVISVP2,2013-08-13 02:34:00,
2013-08-12 22:39:00,77.4,71.1,29.90,ENE,58,0.0,0.0,81,0.00,,,0.00,WUHU216DAVISVP2,2013-08-13 02:39:00,
2013-08-12 22:44:00,77.4,71.6,29.90,ENE,58,0.0,0.0,82,0.00,,,0.00,WUHU216DAVISVP2,2013-08-13 02:44:00,
2013-08-12 22:49:00,77.2,71.4,29.90,ENE,58,0.0,0.0,82,0.00,,,0.00,WUHU216DAVISVP2,2013-08-13 02:49:00,
2013-08-12 22:54:00,77.2,71.4,29.89,ENE,58,0.0,0.0,82,0.00,,,0.00,WUHU216DAVISVP2,2013-08-13 02:54:00,
2013-08-12 22:59:00,77.0,71.2,29.89,ENE,58,0.0,0.0,82,0.00,,,0.00,WUHU216DAVISVP2,2013-08-13 02:59:00,
2013-08-12 23:04:00,76.7,70.5,29.89,ENE,58,0.0,0.0,81,0.00,,,0.00,WUHU216DAVISVP2,2013-08-13 03:04:00,
2013-08-12 23:09:00,76.7,70.5,29.89,ENE,58,0.0,0.0,81,0.00,,,0.00,WUHU216DAVISVP2,2013-08-13 03:09:00,
2013-08-12 23:14:00,76.5,70.3,29.89,ENE,58,0.0,0.0,81,0.00,,,0.00,WUHU216DAVISVP2,2013-08-13 03:14:00,
2013-08-12 23:19:00,76.5,70.6,29.89,ENE,58,0.0,0.0,82,0.00,,,0.00,WUHU216DAVISVP2,2013-08-13 03:19:00,
2013-08-12 23:24:00,76.5,70.7,29.89,ENE,58,0.0,0.0,82,0.00,,,0.00,WUHU216DAVISVP2,2013-08-13 03:24:00,
2013-08-12 23:30:00,76.3,70.4,29.89,ENE,58,0.0,0.0,82,0.00,,,0.00,WUHU216DAVISVP2,2013-08-13 03:30:00,
2013-08-12 23:35:00,76.3,70.5,29.89,ENE,58,0.0,0.0,82,0.00,,,0.00,WUHU216DAVISVP2,2013-08-13 03:35:00,
2013-08-12 23:40:00,76.1,70.3,29.89,ENE,58,0.0,0.0,82,0.00,,,0.00,WUHU216DAVISVP2,2013-08-13 03:40:00,
2013-08-12 23:45:00,76.1,70.2,29.89,ENE,58,0.0,0.0,82,0.00,,,0.00,WUHU216DAVISVP2,2013-08-13 03:45:00,
2013-08-12 23:52:00,76.1,70.2,29.89,ENE,64,0.0,0.0,82,0.00,,,0.00,WUHU216DAVISVP2,2013-08-13 03:52:00,
2013-08-12 23:57:00,76.1,70.3,29.88,ENE,58,0.0,0.0,82,0.00,,,0.00,WUHU216DAVISVP2,2013-08-13 03:57:00,